sensor_id;sensor_type;location;lat;lon;timestamp;P1;durP1;ratioP1;P2;durP2;ratioP2
13834;SDS011;6988;52.614;13.500;2023-02-21T00:01:40;7.03;;;5.27;;
13834;SDS011;6988;52.614;13.500;2023-02-21T00:06:50;7.37;;;5.90;;
13834;SDS011;6988;52.614;13.500;2023-02-21T00:12:00;5.80;;;4.30;;
13834;SDS011;6988;52.614;13.500;2023-02-21T00:17:09;6.33;;;4.53;;
13834;SDS011;6988;52.614;13.500;2023-02-21T00:22:20;6.33;;;4.97;;
13834;SDS011;6988;52.614;13.500;2023-02-21T00:27:29;5.07;;;3.47;;
13834;SDS011;6988;52.614;13.500;2023-02-21T00:32:38;6.03;;;4.07;;
13834;SDS011;6988;52.614;13.500;2023-02-21T00:37:49;6.50;;;4.70;;
13834;SDS011;6988;52.614;13.500;2023-02-21T00:42:59;6.73;;;5.23;;
13834;SDS011;6988;52.614;13.500;2023-02-21T00:48:09;6.23;;;4.40;;
13834;SDS011;6988;52.614;13.500;2023-02-21T00:53:19;6.90;;;5.00;;
13834;SDS011;6988;52.614;13.500;2023-02-21T00:58:32;7.30;;;5.03;;
13834;SDS011;6988;52.614;13.500;2023-02-21T01:03:41;7.03;;;5.37;;
13834;SDS011;6988;52.614;13.500;2023-02-21T01:08:52;8.50;;;5.83;;
13834;SDS011;6988;52.614;13.500;2023-02-21T01:14:02;9.57;;;5.63;;
13834;SDS011;6988;52.614;13.500;2023-02-21T01:19:11;10.07;;;6.63;;
13834;SDS011;6988;52.614;13.500;2023-02-21T01:24:22;9.07;;;6.77;;
13834;SDS011;6988;52.614;13.500;2023-02-21T01:29:32;8.63;;;5.70;;
13834;SDS011;6988;52.614;13.500;2023-02-21T01:34:41;9.27;;;6.93;;
13834;SDS011;6988;52.614;13.500;2023-02-21T01:39:52;9.60;;;7.50;;
13834;SDS011;6988;52.614;13.500;2023-02-21T01:45:05;10.60;;;7.93;;
13834;SDS011;6988;52.614;13.500;2023-02-21T01:50:51;11.73;;;8.60;;
13834;SDS011;6988;52.614;13.500;2023-02-21T01:56:04;11.67;;;7.53;;
13834;SDS011;6988;52.614;13.500;2023-02-21T02:01:18;12.40;;;8.40;;
13834;SDS011;6988;52.614;13.500;2023-02-21T02:06:40;11.07;;;7.67;;
13834;SDS011;6988;52.614;13.500;2023-02-21T02:12:10;13.03;;;8.70;;
13834;SDS011;6988;52.614;13.500;2023-02-21T02:17:19;11.93;;;7.87;;
13834;SDS011;6988;52.614;13.500;2023-02-21T02:22:30;11.73;;;8.17;;
13834;SDS011;6988;52.614;13.500;2023-02-21T02:34:02;13.30;;;9.80;;
13834;SDS011;6988;52.614;13.500;2023-02-21T02:39:28;11.70;;;8.77;;
13834;SDS011;6988;52.614;13.500;2023-02-21T02:44:33;12.77;;;8.77;;
13834;SDS011;6988;52.614;13.500;2023-02-21T02:49:31;14.20;;;8.80;;
13834;SDS011;6988;52.614;13.500;2023-02-21T02:54:28;13.83;;;9.30;;
13834;SDS011;6988;52.614;13.500;2023-02-21T02:59:21;11.90;;;8.83;;
13834;SDS011;6988;52.614;13.500;2023-02-21T03:04:28;11.23;;;8.07;;
13834;SDS011;6988;52.614;13.500;2023-02-21T03:09:50;11.80;;;8.63;;
13834;SDS011;6988;52.614;13.500;2023-02-21T03:14:54;13.23;;;8.00;;
13834;SDS011;6988;52.614;13.500;2023-02-21T03:19:55;12.73;;;7.53;;
13834;SDS011;6988;52.614;13.500;2023-02-21T03:24:53;11.40;;;8.27;;
13834;SDS011;6988;52.614;13.500;2023-02-21T03:29:47;11.13;;;7.50;;
13834;SDS011;6988;52.614;13.500;2023-02-21T03:34:40;9.83;;;7.00;;
13834;SDS011;6988;52.614;13.500;2023-02-21T03:39:37;13.53;;;7.37;;
13834;SDS011;6988;52.614;13.500;2023-02-21T03:44:30;11.80;;;7.50;;
13834;SDS011;6988;52.614;13.500;2023-02-21T03:49:22;12.17;;;8.20;;
13834;SDS011;6988;52.614;13.500;2023-02-21T03:54:14;11.70;;;8.17;;
13834;SDS011;6988;52.614;13.500;2023-02-21T03:59:12;9.50;;;7.20;;
13834;SDS011;6988;52.614;13.500;2023-02-21T04:04:04;9.03;;;6.40;;
13834;SDS011;6988;52.614;13.500;2023-02-21T04:08:57;10.87;;;6.80;;
13834;SDS011;6988;52.614;13.500;2023-02-21T04:13:50;9.40;;;7.07;;
13834;SDS011;6988;52.614;13.500;2023-02-21T04:18:44;11.53;;;7.03;;
13834;SDS011;6988;52.614;13.500;2023-02-21T04:23:38;9.83;;;6.10;;
13834;SDS011;6988;52.614;13.500;2023-02-21T04:28:30;10.83;;;6.80;;
13834;SDS011;6988;52.614;13.500;2023-02-21T04:33:22;12.43;;;6.60;;
13834;SDS011;6988;52.614;13.500;2023-02-21T04:38:17;10.60;;;8.00;;
13834;SDS011;6988;52.614;13.500;2023-02-21T04:43:09;10.50;;;6.37;;
13834;SDS011;6988;52.614;13.500;2023-02-21T04:48:01;12.47;;;8.00;;
13834;SDS011;6988;52.614;13.500;2023-02-21T04:52:53;9.70;;;6.27;;
13834;SDS011;6988;52.614;13.500;2023-02-21T04:57:46;10.13;;;7.10;;
13834;SDS011;6988;52.614;13.500;2023-02-21T05:02:41;10.90;;;6.30;;
13834;SDS011;6988;52.614;13.500;2023-02-21T05:07:33;9.77;;;7.10;;
13834;SDS011;6988;52.614;13.500;2023-02-21T05:12:25;9.83;;;7.37;;
13834;SDS011;6988;52.614;13.500;2023-02-21T05:17:18;10.67;;;6.87;;
13834;SDS011;6988;52.614;13.500;2023-02-21T05:22:10;9.93;;;5.60;;
13834;SDS011;6988;52.614;13.500;2023-02-21T05:27:02;9.23;;;5.93;;
13834;SDS011;6988;52.614;13.500;2023-02-21T05:31:53;7.33;;;5.67;;
13834;SDS011;6988;52.614;13.500;2023-02-21T05:36:47;8.03;;;5.20;;
13834;SDS011;6988;52.614;13.500;2023-02-21T05:41:44;9.87;;;6.63;;
13834;SDS011;6988;52.614;13.500;2023-02-21T05:46:38;8.97;;;6.70;;
13834;SDS011;6988;52.614;13.500;2023-02-21T05:51:32;8.20;;;5.43;;
13834;SDS011;6988;52.614;13.500;2023-02-21T05:56:27;9.63;;;5.40;;
13834;SDS011;6988;52.614;13.500;2023-02-21T06:01:19;8.87;;;4.90;;
13834;SDS011;6988;52.614;13.500;2023-02-21T06:06:13;7.40;;;4.33;;
13834;SDS011;6988;52.614;13.500;2023-02-21T06:11:05;7.93;;;5.17;;
13834;SDS011;6988;52.614;13.500;2023-02-21T06:15:59;6.60;;;4.37;;
13834;SDS011;6988;52.614;13.500;2023-02-21T06:20:50;5.90;;;3.93;;
13834;SDS011;6988;52.614;13.500;2023-02-21T06:25:44;7.10;;;4.60;;
13834;SDS011;6988;52.614;13.500;2023-02-21T06:30:35;5.67;;;4.10;;
13834;SDS011;6988;52.614;13.500;2023-02-21T06:35:28;6.80;;;4.73;;
13834;SDS011;6988;52.614;13.500;2023-02-21T06:40:20;8.60;;;4.57;;
13834;SDS011;6988;52.614;13.500;2023-02-21T06:45:12;6.30;;;4.50;;
13834;SDS011;6988;52.614;13.500;2023-02-21T06:50:04;5.70;;;3.67;;
13834;SDS011;6988;52.614;13.500;2023-02-21T06:54:58;5.33;;;4.03;;
13834;SDS011;6988;52.614;13.500;2023-02-21T06:59:50;4.53;;;2.87;;
13834;SDS011;6988;52.614;13.500;2023-02-21T07:04:42;3.40;;;2.40;;
13834;SDS011;6988;52.614;13.500;2023-02-21T07:09:33;3.03;;;2.10;;
13834;SDS011;6988;52.614;13.500;2023-02-21T07:14:27;1.90;;;1.40;;
13834;SDS011;6988;52.614;13.500;2023-02-21T07:19:19;1.70;;;1.10;;
13834;SDS011;6988;52.614;13.500;2023-02-21T07:24:11;1.70;;;1.13;;
13834;SDS011;6988;52.614;13.500;2023-02-21T07:29:04;1.90;;;1.10;;
13834;SDS011;6988;52.614;13.500;2023-02-21T07:33:58;2.67;;;1.67;;
13834;SDS011;6988;52.614;13.500;2023-02-21T07:38:50;2.50;;;1.30;;
13834;SDS011;6988;52.614;13.500;2023-02-21T07:43:42;1.80;;;1.20;;
13834;SDS011;6988;52.614;13.500;2023-02-21T07:48:34;3.70;;;1.63;;
13834;SDS011;6988;52.614;13.500;2023-02-21T07:53:27;1.27;;;1.00;;
13834;SDS011;6988;52.614;13.500;2023-02-21T07:58:19;2.17;;;1.00;;
13834;SDS011;6988;52.614;13.500;2023-02-21T08:03:11;1.43;;;0.90;;
13834;SDS011;6988;52.614;13.500;2023-02-21T08:08:05;2.00;;;1.03;;
13834;SDS011;6988;52.614;13.500;2023-02-21T08:12:59;1.47;;;1.00;;
13834;SDS011;6988;52.614;13.500;2023-02-21T08:17:51;2.03;;;1.20;;
13834;SDS011;6988;52.614;13.500;2023-02-21T08:22:43;1.90;;;1.20;;
13834;SDS011;6988;52.614;13.500;2023-02-21T08:27:37;1.97;;;1.17;;
13834;SDS011;6988;52.614;13.500;2023-02-21T08:32:32;3.07;;;0.80;;
13834;SDS011;6988;52.614;13.500;2023-02-21T08:37:25;1.73;;;1.00;;
13834;SDS011;6988;52.614;13.500;2023-02-21T08:42:21;1.10;;;0.90;;
13834;SDS011;6988;52.614;13.500;2023-02-21T08:47:14;3.73;;;1.13;;
13834;SDS011;6988;52.614;13.500;2023-02-21T08:52:08;6.37;;;1.13;;
13834;SDS011;6988;52.614;13.500;2023-02-21T08:57:00;8.30;;;1.10;;
13834;SDS011;6988;52.614;13.500;2023-02-21T09:01:53;5.80;;;0.97;;
13834;SDS011;6988;52.614;13.500;2023-02-21T09:06:45;5.03;;;1.10;;
13834;SDS011;6988;52.614;13.500;2023-02-21T09:11:38;9.43;;;1.40;;
13834;SDS011;6988;52.614;13.500;2023-02-21T09:16:33;6.07;;;1.20;;
13834;SDS011;6988;52.614;13.500;2023-02-21T09:21:25;4.63;;;1.23;;
13834;SDS011;6988;52.614;13.500;2023-02-21T09:26:17;7.23;;;1.63;;
13834;SDS011;6988;52.614;13.500;2023-02-21T09:31:12;8.73;;;1.33;;
13834;SDS011;6988;52.614;13.500;2023-02-21T09:36:04;4.43;;;1.77;;
13834;SDS011;6988;52.614;13.500;2023-02-21T09:40:58;8.30;;;1.20;;
13834;SDS011;6988;52.614;13.500;2023-02-21T09:45:54;4.50;;;1.07;;
13834;SDS011;6988;52.614;13.500;2023-02-21T09:50:55;11.27;;;1.50;;
13834;SDS011;6988;52.614;13.500;2023-02-21T09:55:50;3.80;;;1.30;;
13834;SDS011;6988;52.614;13.500;2023-02-21T10:00:49;5.47;;;1.47;;
13834;SDS011;6988;52.614;13.500;2023-02-21T10:05:42;9.90;;;1.67;;
13834;SDS011;6988;52.614;13.500;2023-02-21T10:10:41;7.40;;;1.33;;
13834;SDS011;6988;52.614;13.500;2023-02-21T10:15:42;8.17;;;1.40;;
13834;SDS011;6988;52.614;13.500;2023-02-21T10:20:42;9.47;;;1.50;;
13834;SDS011;6988;52.614;13.500;2023-02-21T10:25:41;11.70;;;2.13;;
13834;SDS011;6988;52.614;13.500;2023-02-21T10:30:36;8.93;;;1.47;;
13834;SDS011;6988;52.614;13.500;2023-02-21T10:35:30;12.47;;;1.60;;
13834;SDS011;6988;52.614;13.500;2023-02-21T10:40:27;10.73;;;2.20;;
13834;SDS011;6988;52.614;13.500;2023-02-21T10:45:29;10.70;;;1.80;;
13834;SDS011;6988;52.614;13.500;2023-02-21T10:50:40;11.40;;;2.17;;
13834;SDS011;6988;52.614;13.500;2023-02-21T10:55:38;10.73;;;2.20;;
13834;SDS011;6988;52.614;13.500;2023-02-21T11:00:33;6.77;;;1.50;;
13834;SDS011;6988;52.614;13.500;2023-02-21T11:05:28;10.57;;;1.70;;
13834;SDS011;6988;52.614;13.500;2023-02-21T11:10:23;9.77;;;2.00;;
13834;SDS011;6988;52.614;13.500;2023-02-21T11:15:21;9.43;;;1.83;;
13834;SDS011;6988;52.614;13.500;2023-02-21T11:20:18;11.50;;;2.07;;
13834;SDS011;6988;52.614;13.500;2023-02-21T11:25:15;10.03;;;2.00;;
13834;SDS011;6988;52.614;13.500;2023-02-21T11:30:15;11.57;;;2.27;;
13834;SDS011;6988;52.614;13.500;2023-02-21T11:35:21;17.20;;;2.20;;
13834;SDS011;6988;52.614;13.500;2023-02-21T11:40:24;14.90;;;2.57;;
13834;SDS011;6988;52.614;13.500;2023-02-21T11:45:23;9.07;;;1.77;;
13834;SDS011;6988;52.614;13.500;2023-02-21T11:50:23;13.37;;;1.90;;
13834;SDS011;6988;52.614;13.500;2023-02-21T11:55:18;10.33;;;1.67;;
13834;SDS011;6988;52.614;13.500;2023-02-21T12:00:15;10.20;;;2.00;;
13834;SDS011;6988;52.614;13.500;2023-02-21T12:05:24;12.20;;;2.13;;
13834;SDS011;6988;52.614;13.500;2023-02-21T12:10:45;11.80;;;2.00;;
13834;SDS011;6988;52.614;13.500;2023-02-21T12:15:50;14.17;;;2.03;;
13834;SDS011;6988;52.614;13.500;2023-02-21T12:21:04;13.23;;;2.00;;
13834;SDS011;6988;52.614;13.500;2023-02-21T12:26:15;12.27;;;1.97;;
13834;SDS011;6988;52.614;13.500;2023-02-21T12:31:38;12.07;;;2.23;;
13834;SDS011;6988;52.614;13.500;2023-02-21T12:37:00;10.40;;;2.57;;
13834;SDS011;6988;52.614;13.500;2023-02-21T12:42:11;11.67;;;2.60;;
13834;SDS011;6988;52.614;13.500;2023-02-21T12:47:27;10.57;;;1.93;;
13834;SDS011;6988;52.614;13.500;2023-02-21T12:52:29;13.43;;;2.50;;
13834;SDS011;6988;52.614;13.500;2023-02-21T12:57:31;9.90;;;1.80;;
13834;SDS011;6988;52.614;13.500;2023-02-21T13:02:39;13.33;;;2.20;;
13834;SDS011;6988;52.614;13.500;2023-02-21T13:07:42;11.73;;;2.57;;
13834;SDS011;6988;52.614;13.500;2023-02-21T13:12:45;10.77;;;2.00;;
13834;SDS011;6988;52.614;13.500;2023-02-21T13:17:49;12.47;;;1.80;;
13834;SDS011;6988;52.614;13.500;2023-02-21T13:22:50;15.20;;;2.73;;
13834;SDS011;6988;52.614;13.500;2023-02-21T13:28:20;10.93;;;2.10;;
13834;SDS011;6988;52.614;13.500;2023-02-21T13:33:24;13.17;;;2.30;;
13834;SDS011;6988;52.614;13.500;2023-02-21T13:38:26;13.63;;;2.60;;
13834;SDS011;6988;52.614;13.500;2023-02-21T13:43:22;10.97;;;2.03;;
13834;SDS011;6988;52.614;13.500;2023-02-21T13:48:21;11.27;;;2.30;;
13834;SDS011;6988;52.614;13.500;2023-02-21T13:53:17;14.80;;;2.43;;
13834;SDS011;6988;52.614;13.500;2023-02-21T14:03:30;10.53;;;2.50;;
13834;SDS011;6988;52.614;13.500;2023-02-21T14:08:24;13.43;;;3.20;;
13834;SDS011;6988;52.614;13.500;2023-02-21T14:13:23;13.77;;;2.23;;
13834;SDS011;6988;52.614;13.500;2023-02-21T14:18:25;9.53;;;1.60;;
13834;SDS011;6988;52.614;13.500;2023-02-21T14:23:22;13.50;;;2.60;;
13834;SDS011;6988;52.614;13.500;2023-02-21T14:33:50;8.03;;;2.00;;
13834;SDS011;6988;52.614;13.500;2023-02-21T14:38:47;8.90;;;2.37;;
13834;SDS011;6988;52.614;13.500;2023-02-21T14:44:00;9.90;;;2.00;;
13834;SDS011;6988;52.614;13.500;2023-02-21T14:49:18;12.90;;;2.77;;
13834;SDS011;6988;52.614;13.500;2023-02-21T15:00:23;13.40;;;2.40;;
13834;SDS011;6988;52.614;13.500;2023-02-21T15:05:30;11.60;;;2.37;;
13834;SDS011;6988;52.614;13.500;2023-02-21T15:10:30;16.47;;;3.07;;
13834;SDS011;6988;52.614;13.500;2023-02-21T15:15:31;13.80;;;2.27;;
13834;SDS011;6988;52.614;13.500;2023-02-21T15:20:26;16.47;;;3.10;;
13834;SDS011;6988;52.614;13.500;2023-02-21T15:25:20;12.43;;;2.40;;
13834;SDS011;6988;52.614;13.500;2023-02-21T15:30:14;14.97;;;2.67;;
13834;SDS011;6988;52.614;13.500;2023-02-21T15:35:09;12.30;;;2.60;;
13834;SDS011;6988;52.614;13.500;2023-02-21T15:40:13;19.33;;;3.40;;
13834;SDS011;6988;52.614;13.500;2023-02-21T15:45:11;13.23;;;2.60;;
13834;SDS011;6988;52.614;13.500;2023-02-21T15:50:12;18.30;;;3.07;;
13834;SDS011;6988;52.614;13.500;2023-02-21T15:55:13;13.90;;;3.00;;
13834;SDS011;6988;52.614;13.500;2023-02-21T16:00:20;14.50;;;2.60;;
13834;SDS011;6988;52.614;13.500;2023-02-21T16:05:21;12.03;;;2.80;;
13834;SDS011;6988;52.614;13.500;2023-02-21T16:10:17;12.67;;;2.93;;
13834;SDS011;6988;52.614;13.500;2023-02-21T16:15:19;15.43;;;2.50;;
13834;SDS011;6988;52.614;13.500;2023-02-21T16:20:16;23.37;;;4.13;;
13834;SDS011;6988;52.614;13.500;2023-02-21T16:25:15;15.67;;;3.50;;
13834;SDS011;6988;52.614;13.500;2023-02-21T16:30:12;14.93;;;4.20;;
13834;SDS011;6988;52.614;13.500;2023-02-21T16:35:10;14.93;;;3.27;;
13834;SDS011;6988;52.614;13.500;2023-02-21T16:40:10;15.73;;;2.90;;
13834;SDS011;6988;52.614;13.500;2023-02-21T16:45:06;17.37;;;3.33;;
13834;SDS011;6988;52.614;13.500;2023-02-21T16:49:59;15.77;;;2.70;;
13834;SDS011;6988;52.614;13.500;2023-02-21T16:54:50;15.23;;;2.97;;
13834;SDS011;6988;52.614;13.500;2023-02-21T16:59:42;12.90;;;3.03;;
13834;SDS011;6988;52.614;13.500;2023-02-21T17:04:36;18.93;;;3.33;;
13834;SDS011;6988;52.614;13.500;2023-02-21T17:09:28;17.70;;;3.33;;
13834;SDS011;6988;52.614;13.500;2023-02-21T17:14:22;11.17;;;3.13;;
13834;SDS011;6988;52.614;13.500;2023-02-21T17:19:15;13.70;;;3.47;;
13834;SDS011;6988;52.614;13.500;2023-02-21T17:24:12;18.50;;;4.27;;
13834;SDS011;6988;52.614;13.500;2023-02-21T17:29:05;16.10;;;4.43;;
13834;SDS011;6988;52.614;13.500;2023-02-21T17:33:58;17.63;;;4.90;;
13834;SDS011;6988;52.614;13.500;2023-02-21T17:38:50;18.27;;;4.27;;
13834;SDS011;6988;52.614;13.500;2023-02-21T17:43:44;17.97;;;4.07;;
13834;SDS011;6988;52.614;13.500;2023-02-21T17:48:36;16.27;;;3.83;;
13834;SDS011;6988;52.614;13.500;2023-02-21T17:53:30;17.03;;;3.13;;
13834;SDS011;6988;52.614;13.500;2023-02-21T17:58:22;11.97;;;3.00;;
13834;SDS011;6988;52.614;13.500;2023-02-21T18:03:15;13.50;;;3.83;;
13834;SDS011;6988;52.614;13.500;2023-02-21T18:08:07;13.23;;;3.27;;
13834;SDS011;6988;52.614;13.500;2023-02-21T18:12:59;15.30;;;3.50;;
13834;SDS011;6988;52.614;13.500;2023-02-21T18:17:51;17.00;;;4.40;;
13834;SDS011;6988;52.614;13.500;2023-02-21T18:22:44;15.63;;;3.80;;
13834;SDS011;6988;52.614;13.500;2023-02-21T18:27:37;16.53;;;3.67;;
13834;SDS011;6988;52.614;13.500;2023-02-21T18:32:29;19.80;;;4.30;;
13834;SDS011;6988;52.614;13.500;2023-02-21T18:37:21;14.63;;;4.30;;
13834;SDS011;6988;52.614;13.500;2023-02-21T18:42:14;12.93;;;3.63;;
13834;SDS011;6988;52.614;13.500;2023-02-21T18:47:07;16.37;;;4.40;;
13834;SDS011;6988;52.614;13.500;2023-02-21T18:52:00;17.40;;;4.57;;
13834;SDS011;6988;52.614;13.500;2023-02-21T18:56:56;16.53;;;4.80;;
13834;SDS011;6988;52.614;13.500;2023-02-21T19:01:51;17.50;;;4.50;;
13834;SDS011;6988;52.614;13.500;2023-02-21T19:06:45;12.77;;;4.60;;
13834;SDS011;6988;52.614;13.500;2023-02-21T19:11:36;24.17;;;5.13;;
13834;SDS011;6988;52.614;13.500;2023-02-21T19:16:29;21.57;;;4.90;;
13834;SDS011;6988;52.614;13.500;2023-02-21T19:21:23;15.57;;;4.00;;
13834;SDS011;6988;52.614;13.500;2023-02-21T19:26:16;19.00;;;4.07;;
13834;SDS011;6988;52.614;13.500;2023-02-21T19:31:08;18.13;;;4.60;;
13834;SDS011;6988;52.614;13.500;2023-02-21T19:36:03;13.80;;;3.63;;
13834;SDS011;6988;52.614;13.500;2023-02-21T19:40:57;15.50;;;4.00;;
13834;SDS011;6988;52.614;13.500;2023-02-21T19:45:49;16.47;;;4.50;;
13834;SDS011;6988;52.614;13.500;2023-02-21T19:50:41;19.73;;;4.77;;
13834;SDS011;6988;52.614;13.500;2023-02-21T19:55:33;17.40;;;4.53;;
13834;SDS011;6988;52.614;13.500;2023-02-21T20:00:26;14.77;;;3.70;;
13834;SDS011;6988;52.614;13.500;2023-02-21T20:05:18;19.17;;;3.90;;
13834;SDS011;6988;52.614;13.500;2023-02-21T20:10:11;21.17;;;3.90;;
13834;SDS011;6988;52.614;13.500;2023-02-21T20:15:03;15.97;;;4.03;;
13834;SDS011;6988;52.614;13.500;2023-02-21T20:20:00;18.17;;;4.07;;
13834;SDS011;6988;52.614;13.500;2023-02-21T20:24:54;17.47;;;4.03;;
13834;SDS011;6988;52.614;13.500;2023-02-21T20:29:46;18.57;;;3.60;;
13834;SDS011;6988;52.614;13.500;2023-02-21T20:34:38;14.07;;;3.57;;
13834;SDS011;6988;52.614;13.500;2023-02-21T20:39:31;15.53;;;3.60;;
13834;SDS011;6988;52.614;13.500;2023-02-21T20:44:24;15.43;;;3.67;;
13834;SDS011;6988;52.614;13.500;2023-02-21T20:49:16;17.40;;;3.70;;
13834;SDS011;6988;52.614;13.500;2023-02-21T20:54:12;19.47;;;3.80;;
13834;SDS011;6988;52.614;13.500;2023-02-21T20:59:14;13.83;;;3.70;;
13834;SDS011;6988;52.614;13.500;2023-02-21T21:04:10;19.90;;;4.37;;
13834;SDS011;6988;52.614;13.500;2023-02-21T21:09:02;20.43;;;4.80;;
13834;SDS011;6988;52.614;13.500;2023-02-21T21:13:54;24.63;;;5.20;;
13834;SDS011;6988;52.614;13.500;2023-02-21T21:18:47;15.23;;;4.90;;
13834;SDS011;6988;52.614;13.500;2023-02-21T21:23:40;17.63;;;4.80;;
13834;SDS011;6988;52.614;13.500;2023-02-21T21:28:32;19.63;;;4.63;;
13834;SDS011;6988;52.614;13.500;2023-02-21T21:33:23;17.43;;;4.43;;
13834;SDS011;6988;52.614;13.500;2023-02-21T21:38:17;23.20;;;5.50;;
13834;SDS011;6988;52.614;13.500;2023-02-21T21:43:13;21.87;;;4.70;;
13834;SDS011;6988;52.614;13.500;2023-02-21T21:48:07;14.87;;;4.27;;
13834;SDS011;6988;52.614;13.500;2023-02-21T21:52:58;18.83;;;4.63;;
13834;SDS011;6988;52.614;13.500;2023-02-21T21:57:52;13.80;;;4.00;;
13834;SDS011;6988;52.614;13.500;2023-02-21T22:02:44;22.23;;;5.00;;
13834;SDS011;6988;52.614;13.500;2023-02-21T22:07:36;24.50;;;6.33;;
13834;SDS011;6988;52.614;13.500;2023-02-21T22:12:28;20.23;;;5.83;;
13834;SDS011;6988;52.614;13.500;2023-02-21T22:17:21;26.93;;;6.40;;
13834;SDS011;6988;52.614;13.500;2023-02-21T22:22:13;22.07;;;5.77;;
13834;SDS011;6988;52.614;13.500;2023-02-21T22:27:05;23.07;;;5.73;;
13834;SDS011;6988;52.614;13.500;2023-02-21T22:31:56;21.80;;;5.80;;
13834;SDS011;6988;52.614;13.500;2023-02-21T22:36:50;12.40;;;4.70;;
13834;SDS011;6988;52.614;13.500;2023-02-21T22:41:44;19.73;;;6.47;;
13834;SDS011;6988;52.614;13.500;2023-02-21T23:04:47;19.70;;;5.00;;
13834;SDS011;6988;52.614;13.500;2023-02-21T23:09:39;20.33;;;5.73;;
13834;SDS011;6988;52.614;13.500;2023-02-21T23:14:31;20.93;;;5.53;;
13834;SDS011;6988;52.614;13.500;2023-02-21T23:19:24;18.73;;;5.03;;
13834;SDS011;6988;52.614;13.500;2023-02-21T23:24:20;22.60;;;5.77;;
13834;SDS011;6988;52.614;13.500;2023-02-21T23:29:12;21.23;;;4.60;;
13834;SDS011;6988;52.614;13.500;2023-02-21T23:34:08;19.77;;;4.20;;
13834;SDS011;6988;52.614;13.500;2023-02-21T23:39:01;22.60;;;5.00;;
13834;SDS011;6988;52.614;13.500;2023-02-21T23:43:59;18.90;;;4.73;;
13834;SDS011;6988;52.614;13.500;2023-02-21T23:48:51;15.37;;;4.60;;
13834;SDS011;6988;52.614;13.500;2023-02-21T23:53:45;20.80;;;4.50;;
13834;SDS011;6988;52.614;13.500;2023-02-21T23:58:37;19.20;;;4.23;;
